createdAt,value
2023-09-23T00:01:15.112Z,75.36
2023-09-23T00:03:47.250Z,75.49
2023-09-23T00:06:22.121Z,75.53
2023-09-23T00:08:53.641Z,75.44
2023-09-23T00:11:26.327Z,75.50
2023-09-23T00:13:58.181Z,75.46
2023-09-23T00:16:30.232Z,75.46
2023-09-23T00:19:03.160Z,75.51
2023-09-23T00:21:34.801Z,75.55
2023-09-23T00:24:08.056Z,75.44
2023-09-23T00:26:39.685Z,75.23
2023-09-23T00:29:11.796Z,75.21
2023-09-23T00:31:44.807Z,75.02
2023-09-23T00:34:17.205Z,75.00
2023-09-23T00:36:49.078Z,74.96
2023-09-23T00:39:20.648Z,74.75
2023-09-23T00:41:53.212Z,74.69
2023-09-23T00:44:25.773Z,74.43
2023-09-23T00:46:57.438Z,74.47
2023-09-23T00:49:28.941Z,74.27
2023-09-23T00:52:01.187Z,74.17
2023-09-23T00:54:33.496Z,73.90
2023-09-23T00:57:07.674Z,73.87
2023-09-23T00:59:41.462Z,73.85
2023-09-23T01:02:15.421Z,73.80
2023-09-23T01:04:47.250Z,73.78
2023-09-23T01:07:19.638Z,73.49
2023-09-23T01:09:51.620Z,73.41
2023-09-23T01:12:23.550Z,73.40
2023-09-23T01:14:59.569Z,73.40
2023-09-23T01:17:31.537Z,73.47
2023-09-23T01:20:03.672Z,73.21
2023-09-23T01:22:36.325Z,73.37
2023-09-23T01:25:09.578Z,73.19
2023-09-23T01:27:41.983Z,73.30
2023-09-23T01:30:14.436Z,73.05
2023-09-23T01:32:51.768Z,73.13
2023-09-23T01:35:24.043Z,73.00
2023-09-23T01:37:55.977Z,73.00
2023-09-23T01:40:30.410Z,73.11
2023-09-23T01:43:03.204Z,73.00
2023-09-23T01:45:34.792Z,73.12
2023-09-23T01:48:07.018Z,73.09
2023-09-23T01:50:38.613Z,73.13
2023-09-23T01:53:10.576Z,73.12
2023-09-23T01:55:42.300Z,73.14
2023-09-23T01:58:15.420Z,73.34
2023-09-23T02:00:46.934Z,73.38
2023-09-23T02:03:18.531Z,73.39
2023-09-23T02:05:51.152Z,73.55
2023-09-23T02:08:22.897Z,73.39
2023-09-23T02:10:54.542Z,73.66
2023-09-23T02:13:26.155Z,73.57
2023-09-23T02:15:58.807Z,73.64
2023-09-23T02:18:30.428Z,73.45
2023-09-23T02:21:01.881Z,73.52
2023-09-23T02:23:33.580Z,73.68
2023-09-23T02:26:05.113Z,73.65
2023-09-23T02:28:36.743Z,73.71
2023-09-23T02:31:08.947Z,73.62
2023-09-23T02:33:40.560Z,73.71
2023-09-23T02:36:15.739Z,73.68
2023-09-23T02:38:48.041Z,73.73
2023-09-23T02:41:19.802Z,73.64
2023-09-23T02:43:54.150Z,73.66
2023-09-23T02:46:25.736Z,73.58
2023-09-23T02:48:57.609Z,73.59
2023-09-23T02:51:29.477Z,73.63
2023-09-23T02:54:01.170Z,73.59
2023-09-23T02:56:32.693Z,73.53
2023-09-23T02:59:12.383Z,73.59
2023-09-23T03:01:49.737Z,73.72
2023-09-23T03:04:24.746Z,73.64
2023-09-23T03:07:00.916Z,73.45
2023-09-23T03:09:33.755Z,73.49
2023-09-23T03:12:05.675Z,73.48
2023-09-23T03:14:39.947Z,73.31
2023-09-23T03:17:14.403Z,73.24
2023-09-23T03:19:46.269Z,73.16
2023-09-23T03:22:21.203Z,72.97
2023-09-23T03:24:53.352Z,73.07
2023-09-23T03:27:29.513Z,72.94
2023-09-23T03:30:04.757Z,73.04
2023-09-23T03:32:36.640Z,73.16
2023-09-23T03:35:15.356Z,73.17
2023-09-23T03:37:50.532Z,73.18
2023-09-23T03:40:26.093Z,73.21
2023-09-23T03:42:58.687Z,73.01
2023-09-23T03:45:34.693Z,73.12
2023-09-23T03:48:07.483Z,73.24
2023-09-23T03:50:39.213Z,73.17
2023-09-23T03:53:12.049Z,73.27
2023-09-23T03:55:43.715Z,73.09
2023-09-23T03:58:15.300Z,72.93
2023-09-23T04:00:47.115Z,72.93
2023-09-23T04:03:19.744Z,72.78
2023-09-23T04:05:59.574Z,72.68
2023-09-23T04:08:31.612Z,72.80
2023-09-23T04:11:06.378Z,72.90
2023-09-23T04:13:37.989Z,72.70
2023-09-23T04:16:10.647Z,72.46
2023-09-23T04:18:43.069Z,72.58
2023-09-23T04:21:14.897Z,72.43
2023-09-23T04:23:46.488Z,72.45
2023-09-23T04:26:22.720Z,72.45
2023-09-23T04:28:54.600Z,72.36
2023-09-23T04:31:26.177Z,72.41
2023-09-23T04:33:57.776Z,72.43
2023-09-23T04:36:29.418Z,72.40
2023-09-23T04:39:01.049Z,72.36
2023-09-23T04:41:32.567Z,72.43
2023-09-23T04:44:04.186Z,72.32
2023-09-23T04:46:35.838Z,72.26
2023-09-23T04:49:07.515Z,72.25
2023-09-23T04:51:39.648Z,72.27
2023-09-23T04:54:11.287Z,72.25
2023-09-23T04:56:43.606Z,72.29
2023-09-23T04:59:15.060Z,72.32
2023-09-23T05:01:47.620Z,72.21
2023-09-23T05:04:19.861Z,72.34
2023-09-23T05:06:51.978Z,72.39
2023-09-23T05:09:24.868Z,72.33
2023-09-23T05:11:56.627Z,72.32
2023-09-23T05:14:28.255Z,72.39
2023-09-23T05:17:00.642Z,72.38
2023-09-23T05:19:32.564Z,72.40
2023-09-23T05:22:04.894Z,72.54
2023-09-23T05:24:36.380Z,72.44
2023-09-23T05:27:08.318Z,72.40
2023-09-23T05:29:40.020Z,72.32
2023-09-23T05:32:12.084Z,72.48
2023-09-23T05:34:44.574Z,72.62
2023-09-23T05:37:16.267Z,72.46
2023-09-23T05:39:47.837Z,72.59
2023-09-23T05:42:24.662Z,72.53
2023-09-23T05:44:56.619Z,72.45
2023-09-23T05:47:28.434Z,72.51
2023-09-23T05:50:00.343Z,72.54
2023-09-23T05:52:33.313Z,72.70
2023-09-23T05:55:05.294Z,72.74
2023-09-23T05:57:39.254Z,72.76
2023-09-23T06:00:18.666Z,72.74
2023-09-23T06:02:50.382Z,72.88
2023-09-23T06:05:23.667Z,72.76
2023-09-23T06:07:56.380Z,72.75
2023-09-23T06:10:28.040Z,72.87
2023-09-23T06:12:59.636Z,73.04
2023-09-23T06:15:33.305Z,73.03
2023-09-23T06:18:05.156Z,73.12
2023-09-23T06:20:37.021Z,72.98
2023-09-23T06:23:09.106Z,72.98
2023-09-23T06:25:40.797Z,73.13
2023-09-23T06:28:12.423Z,72.89
2023-09-23T06:30:46.167Z,72.97
2023-09-23T06:33:18.029Z,72.74
2023-09-23T06:35:50.798Z,72.65
2023-09-23T06:38:22.425Z,72.69
2023-09-23T06:40:59.621Z,72.66
2023-09-23T06:43:30.072Z,72.67
2023-09-23T06:46:02.710Z,72.79
2023-09-23T06:48:34.868Z,72.73
2023-09-23T06:51:06.866Z,72.73
2023-09-23T06:53:39.051Z,72.93
2023-09-23T06:56:10.581Z,72.77
2023-09-23T06:58:43.058Z,72.92
2023-09-23T07:01:14.638Z,72.87
2023-09-23T07:03:47.560Z,72.98
2023-09-23T07:06:19.510Z,72.95
2023-09-23T07:08:51.655Z,73.05
2023-09-23T07:11:24.754Z,72.91
2023-09-23T07:13:57.036Z,72.93
2023-09-23T07:16:28.634Z,72.93
2023-09-23T07:19:00.432Z,72.80
2023-09-23T07:21:32.350Z,72.81
2023-09-23T07:24:05.681Z,72.84
2023-09-23T07:26:39.347Z,72.41
2023-09-23T07:29:10.941Z,72.43
2023-09-23T07:31:42.596Z,72.31
2023-09-23T07:34:15.020Z,72.25
2023-09-23T07:36:46.799Z,72.14
2023-09-23T07:39:19.087Z,71.93
2023-09-23T07:41:51.300Z,71.81
2023-09-23T07:44:22.937Z,71.71
2023-09-23T07:46:54.583Z,71.52
2023-09-23T07:49:26.167Z,71.23
2023-09-23T07:51:59.753Z,71.00
2023-09-23T07:54:31.199Z,70.58
2023-09-23T07:57:02.744Z,70.49
2023-09-23T07:59:34.758Z,70.57
2023-09-23T08:02:06.446Z,70.37
2023-09-23T08:04:38.267Z,70.32
2023-09-23T08:07:09.948Z,69.77
2023-09-23T08:09:41.704Z,69.69
2023-09-23T08:12:13.299Z,69.76
2023-09-23T08:14:44.751Z,69.90
2023-09-23T08:17:17.187Z,69.51
2023-09-23T08:19:48.879Z,69.25
2023-09-23T08:22:21.437Z,69.01
2023-09-23T08:24:52.951Z,69.03
2023-09-23T08:27:24.522Z,69.01
2023-09-23T08:29:57.584Z,68.61
2023-09-23T08:32:29.290Z,68.79
2023-09-23T08:35:00.861Z,68.46
2023-09-23T08:37:32.511Z,68.59
2023-09-23T08:40:07.931Z,67.92
2023-09-23T08:42:40.161Z,68.54
2023-09-23T08:45:12.757Z,68.83
2023-09-23T08:47:45.170Z,68.42
2023-09-23T08:50:17.996Z,68.13
2023-09-23T08:52:49.924Z,68.19
2023-09-23T08:55:24.133Z,68.24
2023-09-23T08:57:56.420Z,68.22
2023-09-23T09:00:30.974Z,67.97
2023-09-23T09:03:02.538Z,67.92
2023-09-23T09:05:44.506Z,67.80
2023-09-23T09:08:17.521Z,67.62
2023-09-23T09:10:49.321Z,67.60
2023-09-23T09:13:21.356Z,67.64
2023-09-23T09:15:55.742Z,67.11
2023-09-23T09:18:27.366Z,66.93
2023-09-23T09:20:59.110Z,66.98
2023-09-23T09:23:34.059Z,66.70
2023-09-23T09:26:05.896Z,66.47
2023-09-23T09:28:37.543Z,65.83
2023-09-23T09:31:12.239Z,65.27
2023-09-23T09:33:48.649Z,64.48
2023-09-23T09:36:24.761Z,64.57
2023-09-23T09:38:59.366Z,64.52
2023-09-23T09:41:39.448Z,64.76
2023-09-23T09:44:12.322Z,64.27
2023-09-23T09:46:44.735Z,64.29
2023-09-23T09:49:17.546Z,64.15
2023-09-23T09:51:51.060Z,63.59
2023-09-23T09:54:26.533Z,63.44
2023-09-23T09:57:00.193Z,63.42
2023-09-23T09:59:34.576Z,63.28
2023-09-23T10:02:08.066Z,63.16
2023-09-23T10:04:39.856Z,63.09
2023-09-23T10:07:11.331Z,63.27
2023-09-23T10:09:55.223Z,63.08
2023-09-23T10:12:32.525Z,63.19
2023-09-23T10:15:05.033Z,63.39
2023-09-23T10:17:39.000Z,63.66
2023-09-23T10:20:19.595Z,63.97
2023-09-23T10:22:55.064Z,63.81
2023-09-23T10:25:38.047Z,63.71
2023-09-23T10:28:19.874Z,63.42
2023-09-23T10:31:00.843Z,63.50
2023-09-23T10:33:35.625Z,63.09
2023-09-23T10:36:09.403Z,63.10
2023-09-23T10:38:40.933Z,63.23
2023-09-23T10:41:13.002Z,63.64
2023-09-23T10:43:44.659Z,63.90
2023-09-23T10:46:17.471Z,63.91
2023-09-23T10:48:49.449Z,64.04
2023-09-23T10:51:21.192Z,64.11
2023-09-23T10:53:52.925Z,63.89
2023-09-23T10:56:26.395Z,63.68
2023-09-23T10:58:58.144Z,63.52
2023-09-23T11:01:30.602Z,63.61
2023-09-23T11:04:02.598Z,63.79
2023-09-23T11:06:34.434Z,63.83
2023-09-23T11:09:06.968Z,63.97
2023-09-23T11:11:39.007Z,64.16
2023-09-23T11:14:15.806Z,63.98
2023-09-23T11:16:47.877Z,63.73
2023-09-23T11:19:19.650Z,63.37
2023-09-23T11:21:51.918Z,63.20
2023-09-23T11:24:23.521Z,62.82
2023-09-23T11:26:55.080Z,63.00
2023-09-23T11:29:27.820Z,62.52
2023-09-23T11:32:00.366Z,62.65
2023-09-23T11:34:32.629Z,62.75
2023-09-23T11:37:04.212Z,62.94
2023-09-23T11:39:36.699Z,62.80
2023-09-23T11:42:08.487Z,62.64
2023-09-23T11:44:40.270Z,62.48
2023-09-23T11:47:12.344Z,62.86
2023-09-23T11:49:44.259Z,62.83
2023-09-23T11:52:15.772Z,62.24
2023-09-23T11:54:47.498Z,62.14
2023-09-23T11:57:19.368Z,61.92
2023-09-23T11:59:50.917Z,61.54
2023-09-23T12:02:23.566Z,61.62
2023-09-23T12:04:55.635Z,61.76
2023-09-23T12:07:27.635Z,62.16
2023-09-23T12:09:59.807Z,62.33
2023-09-23T12:12:31.380Z,62.38
2023-09-23T12:15:03.811Z,62.77
2023-09-23T12:17:35.719Z,62.85
2023-09-23T12:20:12.545Z,62.17
2023-09-23T12:22:46.049Z,62.40
2023-09-23T12:25:18.668Z,62.74
2023-09-23T12:27:50.248Z,62.63
2023-09-23T12:30:21.922Z,62.25
2023-09-23T12:32:53.454Z,62.14
2023-09-23T12:35:25.066Z,61.80
2023-09-23T12:37:57.501Z,61.55
2023-09-23T12:40:29.033Z,61.62
2023-09-23T12:43:00.539Z,61.54
2023-09-23T12:45:32.147Z,61.73
2023-09-23T12:48:03.768Z,61.56
2023-09-23T12:50:35.536Z,61.40
2023-09-23T12:53:07.511Z,61.58
2023-09-23T12:55:39.040Z,61.46
2023-09-23T12:58:10.529Z,61.27
2023-09-23T13:00:42.786Z,61.12
2023-09-23T13:03:15.527Z,60.96
2023-09-23T13:05:47.363Z,61.11
2023-09-23T13:08:21.199Z,61.01
2023-09-23T13:10:52.890Z,60.74
2023-09-23T13:13:24.466Z,60.76
2023-09-23T13:15:56.079Z,60.41
2023-09-23T13:18:27.615Z,60.69
2023-09-23T13:20:59.875Z,60.64
2023-09-23T13:23:33.164Z,60.50
2023-09-23T13:26:04.964Z,60.32
2023-09-23T13:28:38.390Z,60.02
2023-09-23T13:31:10.256Z,59.57
2023-09-23T13:33:41.923Z,59.54
2023-09-23T13:36:13.549Z,59.47
2023-09-23T13:38:45.191Z,59.12
2023-09-23T13:41:16.951Z,58.86
2023-09-23T13:43:48.601Z,58.74
2023-09-23T13:46:20.453Z,58.70
2023-09-23T13:48:52.162Z,58.67
2023-09-23T13:51:23.744Z,57.97
2023-09-23T13:53:55.224Z,57.60
2023-09-23T13:56:26.867Z,57.50
2023-09-23T13:58:58.434Z,57.54
2023-09-23T14:01:31.121Z,57.61
2023-09-23T14:04:02.540Z,57.68
2023-09-23T14:06:34.103Z,57.70
2023-09-23T14:09:05.645Z,58.06
2023-09-23T14:11:37.309Z,57.85
2023-09-23T14:14:09.179Z,57.89
2023-09-23T14:16:40.774Z,58.12
2023-09-23T14:19:12.354Z,57.93
2023-09-23T14:21:44.163Z,57.84
2023-09-23T14:24:15.783Z,57.88
2023-09-23T14:26:47.384Z,57.78
2023-09-23T14:29:19.144Z,58.05
2023-09-23T14:31:51.781Z,58.17
2023-09-23T14:34:23.608Z,58.50
2023-09-23T14:36:55.266Z,58.77
2023-09-23T14:39:26.793Z,58.89
2023-09-23T14:41:58.262Z,59.10
2023-09-23T14:44:29.779Z,59.26
2023-09-23T14:47:01.413Z,59.65
2023-09-23T14:49:33.511Z,60.08
2023-09-23T14:52:05.097Z,60.32
2023-09-23T14:54:36.598Z,60.24
2023-09-23T14:57:08.194Z,60.64
2023-09-23T14:59:40.085Z,60.26
2023-09-23T15:02:11.872Z,60.15
2023-09-23T15:04:43.522Z,59.56
2023-09-23T15:07:16.958Z,59.36
2023-09-23T15:09:52.059Z,58.90
2023-09-23T15:12:23.821Z,58.59
2023-09-23T15:14:55.215Z,58.34
2023-09-23T15:17:26.864Z,57.91
2023-09-23T15:19:58.369Z,57.56
2023-09-23T15:22:30.508Z,57.28
2023-09-23T15:25:01.989Z,56.99
2023-09-23T15:27:33.580Z,57.10
2023-09-23T15:30:08.350Z,57.18
2023-09-23T15:32:41.069Z,57.39
2023-09-23T15:35:12.898Z,57.48
2023-09-23T15:37:44.428Z,57.51
2023-09-23T15:40:17.894Z,57.19
2023-09-23T15:42:50.115Z,57.43
2023-09-23T15:45:21.610Z,57.56
2023-09-23T15:47:53.255Z,57.79
2023-09-23T15:50:27.569Z,58.06
2023-09-23T15:52:59.361Z,58.10
2023-09-23T15:55:30.854Z,58.27
2023-09-23T15:58:02.375Z,58.44
2023-09-23T16:00:34.296Z,58.68
2023-09-23T16:03:06.390Z,58.91
2023-09-23T16:05:38.465Z,58.86
2023-09-23T16:08:10.250Z,59.12
2023-09-23T16:10:41.934Z,59.27
2023-09-23T16:13:14.636Z,60.39
2023-09-23T16:15:47.141Z,62.76
2023-09-23T16:18:21.642Z,61.51
2023-09-23T16:20:54.819Z,61.76
2023-09-23T16:23:26.398Z,61.71
2023-09-23T16:25:57.916Z,61.69
2023-09-23T16:28:29.674Z,61.85
2023-09-23T16:31:02.287Z,61.91
2023-09-23T16:33:33.851Z,61.92
2023-09-23T16:36:05.938Z,62.16
2023-09-23T16:38:37.890Z,62.27
2023-09-23T16:41:09.352Z,62.51
2023-09-23T16:43:41.078Z,62.81
2023-09-23T16:46:12.874Z,63.19
2023-09-23T16:48:44.543Z,63.48
2023-09-23T16:51:16.584Z,63.79
2023-09-23T16:53:48.904Z,63.96
2023-09-23T16:56:21.754Z,64.29
2023-09-23T16:58:53.481Z,64.63
2023-09-23T17:01:25.779Z,64.69
2023-09-23T17:03:57.429Z,65.19
2023-09-23T17:06:29.092Z,65.34
2023-09-23T17:09:01.183Z,65.14
2023-09-23T17:11:33.059Z,65.37
2023-09-23T17:14:04.804Z,65.78
2023-09-23T17:16:36.394Z,66.07
2023-09-23T17:19:08.371Z,66.59
2023-09-23T17:21:39.895Z,67.02
2023-09-23T17:24:12.025Z,67.39
2023-09-23T17:26:43.648Z,67.70
2023-09-23T17:29:15.307Z,68.01
2023-09-23T17:31:47.719Z,68.09
2023-09-23T17:34:19.428Z,68.36
2023-09-23T17:36:51.607Z,68.54
2023-09-23T17:39:23.743Z,68.67
2023-09-23T17:41:55.301Z,68.88
2023-09-23T17:44:27.200Z,68.88
2023-09-23T17:46:58.708Z,68.96
2023-09-23T17:49:30.589Z,68.91
2023-09-23T17:52:02.491Z,68.83
2023-09-23T17:54:34.038Z,68.84
2023-09-23T17:57:05.628Z,69.04
2023-09-23T17:59:38.199Z,69.08
2023-09-23T18:02:10.693Z,69.27
2023-09-23T18:04:43.922Z,69.43
2023-09-23T18:07:15.491Z,69.52
2023-09-23T18:09:46.989Z,69.47
2023-09-23T18:12:18.459Z,69.33
2023-09-23T18:14:50.438Z,69.26
2023-09-23T18:17:22.147Z,69.27
2023-09-23T18:19:54.139Z,69.27
2023-09-23T18:22:25.693Z,69.38
2023-09-23T18:24:58.526Z,69.53
2023-09-23T18:27:31.056Z,69.67
2023-09-23T18:30:03.018Z,69.63
2023-09-23T18:32:34.621Z,69.83
2023-09-23T18:35:07.358Z,69.96
2023-09-23T18:37:39.113Z,69.82
2023-09-23T18:40:12.281Z,69.96
2023-09-23T18:42:44.176Z,70.13
2023-09-23T18:45:16.217Z,70.11
2023-09-23T18:47:47.755Z,70.06
2023-09-23T18:50:19.906Z,69.92
2023-09-23T18:52:52.466Z,69.92
2023-09-23T18:55:24.754Z,69.87
2023-09-23T18:57:57.443Z,69.99
2023-09-23T19:00:29.915Z,69.97
2023-09-23T19:03:03.171Z,69.86
2023-09-23T19:05:36.160Z,69.84
2023-09-23T19:08:08.978Z,69.93
2023-09-23T19:10:41.027Z,69.87
2023-09-23T19:13:12.684Z,69.91
2023-09-23T19:15:50.906Z,70.00
2023-09-23T19:18:22.726Z,70.20
2023-09-23T19:20:54.407Z,70.06
2023-09-23T19:23:28.377Z,70.12
2023-09-23T19:26:02.214Z,70.18
2023-09-23T19:28:33.840Z,70.30
2023-09-23T19:31:05.598Z,70.34
2023-09-23T19:33:37.185Z,70.36
2023-09-23T19:36:09.526Z,70.39
2023-09-23T19:38:41.272Z,70.61
2023-09-23T19:41:12.989Z,70.60
2023-09-23T19:43:44.770Z,70.67
2023-09-23T19:46:16.442Z,70.81
2023-09-23T19:48:48.498Z,70.83
2023-09-23T19:51:26.930Z,70.94
2023-09-23T19:53:58.574Z,70.99
2023-09-23T19:56:30.231Z,71.08
2023-09-23T19:59:02.349Z,71.24
2023-09-23T20:01:35.528Z,71.34
2023-09-23T20:04:07.916Z,71.54
2023-09-23T20:06:40.407Z,71.67
2023-09-23T20:09:12.782Z,71.70
2023-09-23T20:11:45.336Z,71.75
2023-09-23T20:14:18.678Z,71.99
2023-09-23T20:16:50.842Z,72.13
2023-09-23T20:19:23.702Z,72.23
2023-09-23T20:21:55.336Z,72.29
2023-09-23T20:24:26.924Z,72.27
2023-09-23T20:26:59.857Z,72.24
2023-09-23T20:29:31.615Z,72.31
2023-09-23T20:32:03.272Z,72.43
2023-09-23T20:34:35.034Z,72.54
2023-09-23T20:37:08.324Z,72.82
2023-09-23T20:39:40.005Z,72.81
2023-09-23T20:42:12.931Z,72.88
2023-09-23T20:44:44.756Z,72.90
2023-09-23T20:47:16.333Z,72.81
2023-09-23T20:49:47.946Z,72.96
2023-09-23T20:52:20.057Z,72.95
2023-09-23T20:54:53.495Z,72.94
2023-09-23T20:57:25.358Z,72.84
2023-09-23T20:59:57.007Z,72.64
2023-09-23T21:02:29.539Z,72.80
2023-09-23T21:05:05.265Z,72.81
2023-09-23T21:07:37.863Z,72.57
2023-09-23T21:10:12.648Z,72.45
2023-09-23T21:12:44.254Z,72.49
2023-09-23T21:15:18.077Z,72.51
2023-09-23T21:17:49.861Z,72.39
2023-09-23T21:20:22.162Z,72.49
2023-09-23T21:22:54.786Z,72.54
2023-09-23T21:25:26.826Z,72.52
2023-09-23T21:27:58.827Z,72.63
2023-09-23T21:30:30.816Z,72.68
2023-09-23T21:33:02.544Z,72.74
2023-09-23T21:35:34.263Z,72.69
2023-09-23T21:38:06.073Z,72.83
2023-09-23T21:40:44.635Z,72.79
2023-09-23T21:43:16.738Z,72.97
2023-09-23T21:45:48.677Z,72.87
2023-09-23T21:48:20.541Z,73.11
2023-09-23T21:50:59.218Z,73.07
2023-09-23T21:53:31.567Z,72.96
2023-09-23T21:56:03.504Z,73.13
2023-09-23T21:58:35.133Z,73.23
2023-09-23T22:01:08.574Z,73.18
2023-09-23T22:03:40.774Z,73.24
2023-09-23T22:06:13.135Z,72.99
2023-09-23T22:08:45.807Z,73.13
2023-09-23T22:11:18.955Z,73.06
2023-09-23T22:13:50.550Z,73.06
2023-09-23T22:16:22.160Z,73.07
2023-09-23T22:18:53.870Z,72.96
2023-09-23T22:21:27.411Z,72.98
2023-09-23T22:23:59.166Z,72.99
2023-09-23T22:26:30.879Z,72.95
2023-09-23T22:29:04.183Z,72.88
2023-09-23T22:31:36.236Z,72.85
2023-09-23T22:34:08.152Z,72.71
2023-09-23T22:36:39.743Z,72.49
2023-09-23T22:39:13.785Z,72.33
2023-09-23T22:41:46.316Z,72.04
2023-09-23T22:44:17.897Z,72.02
2023-09-23T22:46:49.553Z,72.30
2023-09-23T22:49:22.617Z,72.24
2023-09-23T22:51:55.696Z,72.35
2023-09-23T22:54:27.259Z,72.21
2023-09-23T22:56:58.928Z,72.08
2023-09-23T22:59:30.669Z,72.02
2023-09-23T23:02:02.354Z,72.13
2023-09-23T23:04:34.128Z,72.04
2023-09-23T23:07:05.811Z,72.25
2023-09-23T23:09:37.489Z,72.18
2023-09-23T23:12:10.818Z,72.00
2023-09-23T23:14:42.463Z,72.11
2023-09-23T23:17:14.663Z,72.22
2023-09-23T23:19:46.635Z,72.37
2023-09-23T23:22:18.263Z,72.42
2023-09-23T23:24:50.005Z,72.65
2023-09-23T23:27:21.700Z,72.74
2023-09-23T23:29:55.041Z,72.77
2023-09-23T23:32:27.072Z,72.60
2023-09-23T23:34:58.945Z,72.53
2023-09-23T23:37:33.053Z,72.38
2023-09-23T23:40:05.951Z,72.37
2023-09-23T23:42:39.083Z,72.49
2023-09-23T23:45:12.492Z,72.43
2023-09-23T23:47:44.149Z,72.51
2023-09-23T23:50:17.618Z,72.52
2023-09-23T23:52:50.514Z,72.32
2023-09-23T23:55:22.388Z,72.39
2023-09-23T23:57:53.858Z,72.14
